sensor_id;sensor_type;location;lat;lon;timestamp;pressure;altitude;pressure_sealevel;temperature;humidity
10587;BME280;5341;47.606;7.576;2023-04-06T00:01:44;99057.75;;;10.71;41.06
10587;BME280;5341;47.606;7.576;2023-04-06T00:04:12;99046.38;;;10.69;40.70
10587;BME280;5341;47.606;7.576;2023-04-06T00:06:43;99051.09;;;10.67;41.19
10587;BME280;5341;47.606;7.576;2023-04-06T00:09:11;99057.44;;;10.66;41.11
10587;BME280;5341;47.606;7.576;2023-04-06T00:11:39;99052.25;;;10.65;41.14
10587;BME280;5341;47.606;7.576;2023-04-06T00:14:08;99058.59;;;10.64;40.73
10587;BME280;5341;47.606;7.576;2023-04-06T00:16:37;99056.09;;;10.62;41.12
10587;BME280;5341;47.606;7.576;2023-04-06T00:19:05;99053.63;;;10.61;41.42
10587;BME280;5341;47.606;7.576;2023-04-06T00:21:33;99048.44;;;10.59;40.83
10587;BME280;5341;47.606;7.576;2023-04-06T00:24:01;99045.94;;;10.57;41.09
10587;BME280;5341;47.606;7.576;2023-04-06T00:26:29;99039.13;;;10.55;41.44
10587;BME280;5341;47.606;7.576;2023-04-06T00:29:00;99043.78;;;10.53;41.37
10587;BME280;5341;47.606;7.576;2023-04-06T00:31:28;99041.28;;;10.51;41.08
10587;BME280;5341;47.606;7.576;2023-04-06T00:33:58;99037.97;;;10.49;41.38
10587;BME280;5341;47.606;7.576;2023-04-06T00:36:29;99032.13;;;10.46;41.22
10587;BME280;5341;47.606;7.576;2023-04-06T00:38:57;99030.66;;;10.43;40.68
10587;BME280;5341;47.606;7.576;2023-04-06T00:41:25;99029.97;;;10.41;41.04
10587;BME280;5341;47.606;7.576;2023-04-06T00:43:53;99030.16;;;10.40;41.43
10587;BME280;5341;47.606;7.576;2023-04-06T00:46:21;99031.34;;;10.37;40.92
10587;BME280;5341;47.606;7.576;2023-04-06T00:48:50;99027.16;;;10.35;41.17
10587;BME280;5341;47.606;7.576;2023-04-06T00:51:19;99025.69;;;10.32;41.10
10587;BME280;5341;47.606;7.576;2023-04-06T00:53:46;99021.34;;;10.31;41.10
10587;BME280;5341;47.606;7.576;2023-04-06T00:56:14;99021.50;;;10.30;40.81
10587;BME280;5341;47.606;7.576;2023-04-06T00:58:52;99019.00;;;10.28;40.79
10587;BME280;5341;47.606;7.576;2023-04-06T01:01:20;99027.19;;;10.26;40.99
10587;BME280;5341;47.606;7.576;2023-04-06T01:03:50;99025.53;;;10.25;41.25
10587;BME280;5341;47.606;7.576;2023-04-06T01:06:21;99015.03;;;10.24;41.21
10587;BME280;5341;47.606;7.576;2023-04-06T01:08:57;99016.22;;;10.21;41.47
10587;BME280;5341;47.606;7.576;2023-04-06T01:11:26;99019.84;;;10.20;41.30
10587;BME280;5341;47.606;7.576;2023-04-06T01:13:54;99011.19;;;10.18;41.05
10587;BME280;5341;47.606;7.576;2023-04-06T01:16:39;99015.00;;;10.16;41.04
10587;BME280;5341;47.606;7.576;2023-04-06T01:19:13;99010.69;;;10.15;41.17
10587;BME280;5341;47.606;7.576;2023-04-06T01:21:47;99013.69;;;10.12;41.70
10587;BME280;5341;47.606;7.576;2023-04-06T01:24:19;99010.38;;;10.10;41.35
10587;BME280;5341;47.606;7.576;2023-04-06T01:27:08;99015.91;;;10.08;41.13
10587;BME280;5341;47.606;7.576;2023-04-06T01:30:14;99014.56;;;10.04;40.99
10587;BME280;5341;47.606;7.576;2023-04-06T01:32:48;99013.91;;;10.02;41.41
10587;BME280;5341;47.606;7.576;2023-04-06T01:35:22;99015.09;;;9.99;41.04
10587;BME280;5341;47.606;7.576;2023-04-06T01:38:01;99010.94;;;9.97;41.64
10587;BME280;5341;47.606;7.576;2023-04-06T01:40:33;99006.75;;;9.94;41.43
10587;BME280;5341;47.606;7.576;2023-04-06T01:43:01;99004.41;;;9.91;41.54
10587;BME280;5341;47.606;7.576;2023-04-06T01:45:35;99001.09;;;9.89;40.97
10587;BME280;5341;47.606;7.576;2023-04-06T01:48:13;98997.75;;;9.87;41.41
10587;BME280;5341;47.606;7.576;2023-04-06T01:50:41;99006.13;;;9.84;41.22
10587;BME280;5341;47.606;7.576;2023-04-06T01:53:11;99000.97;;;9.83;40.97
10587;BME280;5341;47.606;7.576;2023-04-06T01:55:42;98997.59;;;9.81;41.09
10587;BME280;5341;47.606;7.576;2023-04-06T01:58:28;99004.13;;;9.78;41.33
10587;BME280;5341;47.606;7.576;2023-04-06T02:00:56;98994.63;;;9.76;41.37
10587;BME280;5341;47.606;7.576;2023-04-06T02:03:24;98991.28;;;9.74;41.70
10587;BME280;5341;47.606;7.576;2023-04-06T02:06:02;98991.47;;;9.72;41.19
10587;BME280;5341;47.606;7.576;2023-04-06T02:08:34;99004.16;;;9.70;41.60
10587;BME280;5341;47.606;7.576;2023-04-06T02:11:03;98997.31;;;9.67;41.53
10587;BME280;5341;47.606;7.576;2023-04-06T02:13:38;98986.97;;;9.64;41.10
10587;BME280;5341;47.606;7.576;2023-04-06T02:16:06;98997.00;;;9.62;41.24
10587;BME280;5341;47.606;7.576;2023-04-06T02:18:34;98992.66;;;9.61;41.63
10587;BME280;5341;47.606;7.576;2023-04-06T02:21:02;99000.84;;;9.60;41.37
10587;BME280;5341;47.606;7.576;2023-04-06T02:23:29;98995.81;;;9.57;41.47
10587;BME280;5341;47.606;7.576;2023-04-06T02:25:57;98991.47;;;9.56;41.47
10587;BME280;5341;47.606;7.576;2023-04-06T02:28:26;98993.66;;;9.52;41.56
10587;BME280;5341;47.606;7.576;2023-04-06T02:30:56;98993.00;;;9.50;41.53
10587;BME280;5341;47.606;7.576;2023-04-06T02:33:26;98993.34;;;9.47;41.42
10587;BME280;5341;47.606;7.576;2023-04-06T02:35:54;98987.38;;;9.45;41.42
10587;BME280;5341;47.606;7.576;2023-04-06T02:38:22;98991.84;;;9.45;41.41
10587;BME280;5341;47.606;7.576;2023-04-06T02:40:51;98993.00;;;9.42;41.45
10587;BME280;5341;47.606;7.576;2023-04-06T02:43:26;98989.69;;;9.40;41.44
10587;BME280;5341;47.606;7.576;2023-04-06T02:46:02;98988.03;;;9.39;41.46
10587;BME280;5341;47.606;7.576;2023-04-06T02:48:33;98983.88;;;9.36;41.19
10587;BME280;5341;47.606;7.576;2023-04-06T02:51:02;98990.22;;;9.35;41.47
10587;BME280;5341;47.606;7.576;2023-04-06T02:53:30;98985.03;;;9.34;41.48
10587;BME280;5341;47.606;7.576;2023-04-06T02:55:58;98985.19;;;9.32;41.60
10587;BME280;5341;47.606;7.576;2023-04-06T02:58:34;98988.84;;;9.31;41.57
10587;BME280;5341;47.606;7.576;2023-04-06T03:01:01;98984.53;;;9.30;41.64
10587;BME280;5341;47.606;7.576;2023-04-06T03:03:29;98987.19;;;9.30;41.49
10587;BME280;5341;47.606;7.576;2023-04-06T03:05:57;98984.69;;;9.29;41.51
10587;BME280;5341;47.606;7.576;2023-04-06T03:08:29;98984.88;;;9.27;41.33
10587;BME280;5341;47.606;7.576;2023-04-06T03:10:57;98981.38;;;9.27;41.46
10587;BME280;5341;47.606;7.576;2023-04-06T03:13:35;98979.88;;;9.24;41.48
10587;BME280;5341;47.606;7.576;2023-04-06T03:16:04;98980.22;;;9.21;41.61
10587;BME280;5341;47.606;7.576;2023-04-06T03:18:32;98979.38;;;9.21;41.72
10587;BME280;5341;47.606;7.576;2023-04-06T03:21:00;98982.19;;;9.19;41.40
10587;BME280;5341;47.606;7.576;2023-04-06T03:23:35;98982.38;;;9.18;41.62
10587;BME280;5341;47.606;7.576;2023-04-06T03:26:03;98975.53;;;9.15;41.56
10587;BME280;5341;47.606;7.576;2023-04-06T03:28:36;98980.03;;;9.15;41.86
10587;BME280;5341;47.606;7.576;2023-04-06T03:31:05;98984.72;;;9.13;41.71
10587;BME280;5341;47.606;7.576;2023-04-06T03:33:57;98984.06;;;9.10;41.55
10587;BME280;5341;47.606;7.576;2023-04-06T03:36:31;98982.53;;;9.08;41.63
10587;BME280;5341;47.606;7.576;2023-04-06T03:39:00;98990.72;;;9.06;41.66
10587;BME280;5341;47.606;7.576;2023-04-06T03:41:30;98980.38;;;9.03;41.71
10587;BME280;5341;47.606;7.576;2023-04-06T03:44:22;98981.38;;;9.02;41.62
10587;BME280;5341;47.606;7.576;2023-04-06T03:46:50;98983.38;;;9.00;41.52
10587;BME280;5341;47.606;7.576;2023-04-06T03:49:19;98987.06;;;8.99;41.31
10587;BME280;5341;47.606;7.576;2023-04-06T03:51:51;98988.22;;;8.97;41.27
10587;BME280;5341;47.606;7.576;2023-04-06T03:54:18;98993.69;;;8.95;41.76
10587;BME280;5341;47.606;7.576;2023-04-06T03:56:46;98993.03;;;8.93;41.91
10587;BME280;5341;47.606;7.576;2023-04-06T03:59:14;98996.72;;;8.92;41.51
10587;BME280;5341;47.606;7.576;2023-04-06T04:01:43;98993.38;;;8.90;41.80
10587;BME280;5341;47.606;7.576;2023-04-06T04:04:15;98997.03;;;8.89;41.40
10587;BME280;5341;47.606;7.576;2023-04-06T04:06:44;98998.88;;;8.89;41.57
10587;BME280;5341;47.606;7.576;2023-04-06T04:09:12;99006.06;;;8.88;41.61
10587;BME280;5341;47.606;7.576;2023-04-06T04:11:40;99004.56;;;8.86;41.65
10587;BME280;5341;47.606;7.576;2023-04-06T04:14:07;99004.56;;;8.86;41.74
10587;BME280;5341;47.606;7.576;2023-04-06T04:16:35;99005.56;;;8.85;41.75
10587;BME280;5341;47.606;7.576;2023-04-06T04:19:04;99000.22;;;8.85;41.88
10587;BME280;5341;47.606;7.576;2023-04-06T04:21:33;99011.03;;;8.83;41.88
10587;BME280;5341;47.606;7.576;2023-04-06T04:24:07;99014.69;;;8.82;41.78
10587;BME280;5341;47.606;7.576;2023-04-06T04:26:37;99023.69;;;8.81;41.66
10587;BME280;5341;47.606;7.576;2023-04-06T04:29:07;99021.19;;;8.79;41.88
10587;BME280;5341;47.606;7.576;2023-04-06T04:31:36;99028.38;;;8.79;41.88
10587;BME280;5341;47.606;7.576;2023-04-06T04:34:12;99026.88;;;8.76;41.90
10587;BME280;5341;47.606;7.576;2023-04-06T04:36:40;99025.38;;;8.74;42.09
10587;BME280;5341;47.606;7.576;2023-04-06T04:39:11;99022.88;;;8.72;42.06
10587;BME280;5341;47.606;7.576;2023-04-06T04:41:43;99024.00;;;8.70;41.82
10587;BME280;5341;47.606;7.576;2023-04-06T04:44:12;99025.19;;;8.67;42.07
10587;BME280;5341;47.606;7.576;2023-04-06T04:46:39;99036.84;;;8.66;41.89
10587;BME280;5341;47.606;7.576;2023-04-06T04:49:09;99036.34;;;8.63;42.08
10587;BME280;5341;47.606;7.576;2023-04-06T04:51:39;99034.84;;;8.60;42.00
10587;BME280;5341;47.606;7.576;2023-04-06T04:54:27;99039.47;;;8.58;42.10
10587;BME280;5341;47.606;7.576;2023-04-06T04:56:55;99037.97;;;8.56;42.35
10587;BME280;5341;47.606;7.576;2023-04-06T04:59:38;99038.13;;;8.54;42.09
10587;BME280;5341;47.606;7.576;2023-04-06T05:02:16;99043.81;;;8.51;42.03
10587;BME280;5341;47.606;7.576;2023-04-06T05:04:55;99042.31;;;8.48;42.11
10587;BME280;5341;47.606;7.576;2023-04-06T05:07:27;99045.81;;;8.49;42.16
10587;BME280;5341;47.606;7.576;2023-04-06T05:09:56;99052.13;;;8.48;42.16
10587;BME280;5341;47.606;7.576;2023-04-06T05:12:26;99046.09;;;8.46;42.14
10587;BME280;5341;47.606;7.576;2023-04-06T05:15:04;99047.94;;;8.45;42.18
10587;BME280;5341;47.606;7.576;2023-04-06T05:17:32;99038.44;;;8.43;42.06
10587;BME280;5341;47.606;7.576;2023-04-06T05:20:00;99045.59;;;8.42;42.17
10587;BME280;5341;47.606;7.576;2023-04-06T05:22:33;99055.44;;;8.42;42.18
10587;BME280;5341;47.606;7.576;2023-04-06T05:25:06;99053.75;;;8.41;42.36
10587;BME280;5341;47.606;7.576;2023-04-06T05:27:35;99055.59;;;8.40;42.14
10587;BME280;5341;47.606;7.576;2023-04-06T05:30:08;99063.59;;;8.40;42.32
10587;BME280;5341;47.606;7.576;2023-04-06T05:32:42;99061.09;;;8.39;42.21
10587;BME280;5341;47.606;7.576;2023-04-06T05:35:10;99058.41;;;8.39;42.05
10587;BME280;5341;47.606;7.576;2023-04-06T05:37:45;99061.91;;;8.39;42.40
10587;BME280;5341;47.606;7.576;2023-04-06T05:40:14;99062.75;;;8.40;42.13
10587;BME280;5341;47.606;7.576;2023-04-06T05:42:46;99068.25;;;8.38;42.18
10587;BME280;5341;47.606;7.576;2023-04-06T05:45:15;99065.59;;;8.38;42.08
10587;BME280;5341;47.606;7.576;2023-04-06T05:47:51;99066.56;;;8.37;41.95
10587;BME280;5341;47.606;7.576;2023-04-06T05:50:23;99073.75;;;8.37;42.60
10587;BME280;5341;47.606;7.576;2023-04-06T05:52:52;99065.88;;;8.35;42.15
10587;BME280;5341;47.606;7.576;2023-04-06T05:55:23;99065.75;;;8.37;42.23
10587;BME280;5341;47.606;7.576;2023-04-06T05:58:00;99070.06;;;8.38;42.19
10587;BME280;5341;47.606;7.576;2023-04-06T06:00:28;99079.06;;;8.37;42.29
10587;BME280;5341;47.606;7.576;2023-04-06T06:03:03;99075.41;;;8.38;42.12
10587;BME280;5341;47.606;7.576;2023-04-06T06:05:33;99077.06;;;8.39;42.48
10587;BME280;5341;47.606;7.576;2023-04-06T06:08:13;99074.09;;;8.42;42.46
10587;BME280;5341;47.606;7.576;2023-04-06T06:10:41;99072.25;;;8.42;42.25
10587;BME280;5341;47.606;7.576;2023-04-06T06:13:11;99077.59;;;8.42;42.54
10587;BME280;5341;47.606;7.576;2023-04-06T06:15:40;99085.41;;;8.44;41.97
10587;BME280;5341;47.606;7.576;2023-04-06T06:18:11;99078.09;;;8.46;42.08
10587;BME280;5341;47.606;7.576;2023-04-06T06:20:48;99086.06;;;8.46;42.12
10587;BME280;5341;47.606;7.576;2023-04-06T06:23:21;99080.59;;;8.47;42.27
10587;BME280;5341;47.606;7.576;2023-04-06T06:26:04;99084.13;;;8.48;42.23
10587;BME280;5341;47.606;7.576;2023-04-06T06:28:32;99078.78;;;8.48;42.18
10587;BME280;5341;47.606;7.576;2023-04-06T06:31:00;99074.41;;;8.47;42.22
10587;BME280;5341;47.606;7.576;2023-04-06T06:33:29;99077.78;;;8.49;42.33
10587;BME280;5341;47.606;7.576;2023-04-06T06:35:58;99080.44;;;8.49;42.39
10587;BME280;5341;47.606;7.576;2023-04-06T06:38:27;99077.63;;;8.50;42.42
10587;BME280;5341;47.606;7.576;2023-04-06T06:40:55;99078.13;;;8.54;42.42
10587;BME280;5341;47.606;7.576;2023-04-06T06:43:29;99078.97;;;8.55;42.41
10587;BME280;5341;47.606;7.576;2023-04-06T06:46:03;99067.13;;;8.57;42.36
10587;BME280;5341;47.606;7.576;2023-04-06T06:48:30;99080.47;;;8.57;42.51
10587;BME280;5341;47.606;7.576;2023-04-06T06:50:58;99084.78;;;8.58;42.47
10587;BME280;5341;47.606;7.576;2023-04-06T06:53:28;99088.16;;;8.60;42.30
10587;BME280;5341;47.606;7.576;2023-04-06T06:55:55;99090.66;;;8.62;42.42
10587;BME280;5341;47.606;7.576;2023-04-06T06:58:23;99080.66;;;8.64;42.41
10587;BME280;5341;47.606;7.576;2023-04-06T07:00:55;99092.00;;;8.66;42.46
10587;BME280;5341;47.606;7.576;2023-04-06T07:03:23;99089.81;;;8.69;42.37
10587;BME280;5341;47.606;7.576;2023-04-06T07:05:51;99087.38;;;8.76;42.41
10587;BME280;5341;47.606;7.576;2023-04-06T07:08:22;99090.34;;;8.81;42.43
10587;BME280;5341;47.606;7.576;2023-04-06T07:10:51;99086.41;;;8.85;42.31
10587;BME280;5341;47.606;7.576;2023-04-06T07:13:21;99077.88;;;8.90;42.43
10587;BME280;5341;47.606;7.576;2023-04-06T07:15:52;99085.38;;;8.94;42.56
10587;BME280;5341;47.606;7.576;2023-04-06T07:18:20;99084.09;;;8.98;42.32
10587;BME280;5341;47.606;7.576;2023-04-06T07:20:48;99080.06;;;9.02;42.37
10587;BME280;5341;47.606;7.576;2023-04-06T07:23:16;99081.41;;;9.06;42.14
10587;BME280;5341;47.606;7.576;2023-04-06T07:25:44;99083.59;;;9.11;42.58
10587;BME280;5341;47.606;7.576;2023-04-06T07:28:13;99081.25;;;9.16;42.55
10587;BME280;5341;47.606;7.576;2023-04-06T07:30:42;99086.94;;;9.21;42.56
10587;BME280;5341;47.606;7.576;2023-04-06T07:33:11;99081.94;;;9.26;42.47
10587;BME280;5341;47.606;7.576;2023-04-06T07:35:40;99081.25;;;9.32;42.35
10587;BME280;5341;47.606;7.576;2023-04-06T07:38:08;99077.94;;;9.38;42.31
10587;BME280;5341;47.606;7.576;2023-04-06T07:40:35;99080.63;;;9.47;42.35
10587;BME280;5341;47.606;7.576;2023-04-06T07:43:03;99074.44;;;9.54;42.11
10587;BME280;5341;47.606;7.576;2023-04-06T07:45:32;99079.75;;;9.62;42.14
10587;BME280;5341;47.606;7.576;2023-04-06T07:48:01;99078.09;;;9.69;42.47
10587;BME280;5341;47.606;7.576;2023-04-06T07:50:30;99076.88;;;9.80;42.18
10587;BME280;5341;47.606;7.576;2023-04-06T07:52:58;99083.06;;;9.89;42.26
10587;BME280;5341;47.606;7.576;2023-04-06T07:55:27;99079.22;;;9.99;42.42
10587;BME280;5341;47.606;7.576;2023-04-06T07:57:59;99079.84;;;10.10;41.58
10587;BME280;5341;47.606;7.576;2023-04-06T08:00:26;99076.81;;;10.21;42.08
10587;BME280;5341;47.606;7.576;2023-04-06T08:02:55;99082.97;;;10.30;41.47
10587;BME280;5341;47.606;7.576;2023-04-06T08:05:23;99075.41;;;10.41;41.45
10587;BME280;5341;47.606;7.576;2023-04-06T08:07:51;99073.19;;;10.53;41.73
10587;BME280;5341;47.606;7.576;2023-04-06T08:10:19;99070.97;;;10.65;41.71
10587;BME280;5341;47.606;7.576;2023-04-06T08:12:46;99080.25;;;10.77;41.31
10587;BME280;5341;47.606;7.576;2023-04-06T08:15:18;99073.69;;;10.88;41.63
10587;BME280;5341;47.606;7.576;2023-04-06T08:17:46;99075.13;;;10.98;41.24
10587;BME280;5341;47.606;7.576;2023-04-06T08:20:15;99070.38;;;11.08;41.17
10587;BME280;5341;47.606;7.576;2023-04-06T08:22:44;99061.28;;;11.18;40.90
10587;BME280;5341;47.606;7.576;2023-04-06T08:25:12;99067.41;;;11.26;40.47
10587;BME280;5341;47.606;7.576;2023-04-06T08:27:40;99065.69;;;11.33;40.57
10587;BME280;5341;47.606;7.576;2023-04-06T08:30:08;99068.94;;;11.43;39.96
10587;BME280;5341;47.606;7.576;2023-04-06T08:32:40;99067.19;;;11.51;39.72
10587;BME280;5341;47.606;7.576;2023-04-06T08:35:08;99071.47;;;11.60;39.48
10587;BME280;5341;47.606;7.576;2023-04-06T08:37:37;99073.25;;;11.67;39.74
10587;BME280;5341;47.606;7.576;2023-04-06T08:40:06;99059.94;;;11.74;39.14
10587;BME280;5341;47.606;7.576;2023-04-06T08:42:40;99063.25;;;11.84;39.39
10587;BME280;5341;47.606;7.576;2023-04-06T08:45:09;99072.03;;;11.93;39.16
10587;BME280;5341;47.606;7.576;2023-04-06T08:47:37;99076.94;;;12.04;38.92
10587;BME280;5341;47.606;7.576;2023-04-06T08:50:06;99069.81;;;12.11;39.02
10587;BME280;5341;47.606;7.576;2023-04-06T08:52:39;99074.25;;;12.19;38.68
10587;BME280;5341;47.606;7.576;2023-04-06T08:55:08;99075.00;;;12.27;38.69
10587;BME280;5341;47.606;7.576;2023-04-06T08:57:36;99074.91;;;12.36;38.50
10587;BME280;5341;47.606;7.576;2023-04-06T09:00:06;99072.97;;;12.44;38.59
10587;BME280;5341;47.606;7.576;2023-04-06T09:02:38;99069.16;;;12.53;39.05
10587;BME280;5341;47.606;7.576;2023-04-06T09:05:08;99061.66;;;12.64;38.35
10587;BME280;5341;47.606;7.576;2023-04-06T09:07:36;99065.31;;;12.77;38.24
10587;BME280;5341;47.606;7.576;2023-04-06T09:10:06;99067.31;;;12.90;38.18
10587;BME280;5341;47.606;7.576;2023-04-06T09:12:34;99067.47;;;13.03;38.21
10587;BME280;5341;47.606;7.576;2023-04-06T09:15:02;99065.75;;;13.17;38.03
10587;BME280;5341;47.606;7.576;2023-04-06T09:17:31;99059.28;;;13.26;38.62
10587;BME280;5341;47.606;7.576;2023-04-06T09:20:00;99061.84;;;13.34;38.17
10587;BME280;5341;47.606;7.576;2023-04-06T09:22:35;99060.03;;;13.41;38.38
10587;BME280;5341;47.606;7.576;2023-04-06T09:25:05;99050.38;;;13.47;39.00
10587;BME280;5341;47.606;7.576;2023-04-06T09:27:35;99054.53;;;13.49;38.56
10587;BME280;5341;47.606;7.576;2023-04-06T09:30:04;99065.31;;;13.56;38.27
10587;BME280;5341;47.606;7.576;2023-04-06T09:32:32;99052.16;;;13.61;38.01
10587;BME280;5341;47.606;7.576;2023-04-06T09:35:06;99061.53;;;13.72;36.52
10587;BME280;5341;47.606;7.576;2023-04-06T09:37:34;99057.47;;;13.83;35.86
10587;BME280;5341;47.606;7.576;2023-04-06T09:40:03;99051.94;;;13.91;37.50
10587;BME280;5341;47.606;7.576;2023-04-06T09:42:32;99053.25;;;14.01;36.53
10587;BME280;5341;47.606;7.576;2023-04-06T09:45:00;99054.34;;;14.14;35.99
10587;BME280;5341;47.606;7.576;2023-04-06T09:47:30;99052.34;;;14.22;36.08
10587;BME280;5341;47.606;7.576;2023-04-06T09:49:59;99040.41;;;14.31;36.09
10587;BME280;5341;47.606;7.576;2023-04-06T09:52:32;99039.84;;;14.43;35.82
10587;BME280;5341;47.606;7.576;2023-04-06T09:55:02;99042.56;;;14.49;36.30
10587;BME280;5341;47.606;7.576;2023-04-06T09:57:37;99036.19;;;14.57;35.95
10587;BME280;5341;47.606;7.576;2023-04-06T10:00:10;99037.69;;;14.66;36.16
10587;BME280;5341;47.606;7.576;2023-04-06T10:02:47;99034.81;;;14.74;36.70
10587;BME280;5341;47.606;7.576;2023-04-06T10:05:20;99034.63;;;14.82;36.51
10587;BME280;5341;47.606;7.576;2023-04-06T10:07:51;99033.66;;;15.03;36.04
10587;BME280;5341;47.606;7.576;2023-04-06T10:10:20;99020.59;;;15.13;36.00
10587;BME280;5341;47.606;7.576;2023-04-06T10:12:49;99022.28;;;15.28;35.05
10587;BME280;5341;47.606;7.576;2023-04-06T10:15:17;99030.16;;;15.49;34.63
10587;BME280;5341;47.606;7.576;2023-04-06T10:17:45;99027.25;;;15.57;35.99
10587;BME280;5341;47.606;7.576;2023-04-06T10:20:17;99025.41;;;15.58;36.80
10587;BME280;5341;47.606;7.576;2023-04-06T10:22:58;99021.25;;;15.55;35.47
10587;BME280;5341;47.606;7.576;2023-04-06T10:25:28;99029.34;;;15.62;35.67
10587;BME280;5341;47.606;7.576;2023-04-06T10:28:01;99028.53;;;15.68;36.53
10587;BME280;5341;47.606;7.576;2023-04-06T10:30:32;99022.72;;;15.71;36.42
10587;BME280;5341;47.606;7.576;2023-04-06T10:33:00;99026.66;;;15.81;36.60
10587;BME280;5341;47.606;7.576;2023-04-06T10:35:37;99019.41;;;15.89;36.02
10587;BME280;5341;47.606;7.576;2023-04-06T10:38:05;99022.47;;;15.99;35.17
10587;BME280;5341;47.606;7.576;2023-04-06T10:40:36;99012.91;;;16.16;35.02
10587;BME280;5341;47.606;7.576;2023-04-06T10:43:09;99017.81;;;16.39;33.84
10587;BME280;5341;47.606;7.576;2023-04-06T10:45:37;99012.97;;;16.54;34.89
10587;BME280;5341;47.606;7.576;2023-04-06T10:48:15;99010.03;;;16.56;34.98
10587;BME280;5341;47.606;7.576;2023-04-06T10:50:44;99009.81;;;16.57;35.76
10587;BME280;5341;47.606;7.576;2023-04-06T10:53:21;99005.03;;;16.59;35.51
10587;BME280;5341;47.606;7.576;2023-04-06T10:55:50;99010.63;;;16.64;34.74
10587;BME280;5341;47.606;7.576;2023-04-06T10:58:19;99004.38;;;16.77;32.92
10587;BME280;5341;47.606;7.576;2023-04-06T11:00:48;99011.41;;;16.85;33.94
10587;BME280;5341;47.606;7.576;2023-04-06T11:03:17;99004.50;;;16.89;33.25
10587;BME280;5341;47.606;7.576;2023-04-06T11:05:45;99002.94;;;17.06;32.67
10587;BME280;5341;47.606;7.576;2023-04-06T11:08:22;98996.00;;;17.17;31.45
10587;BME280;5341;47.606;7.576;2023-04-06T11:10:50;99010.34;;;17.17;31.19
10587;BME280;5341;47.606;7.576;2023-04-06T11:13:19;99004.91;;;17.24;30.77
10587;BME280;5341;47.606;7.576;2023-04-06T11:15:47;98991.88;;;17.39;30.33
10587;BME280;5341;47.606;7.576;2023-04-06T11:18:17;98994.09;;;17.49;30.68
10587;BME280;5341;47.606;7.576;2023-04-06T11:20:47;98992.59;;;17.53;29.85
10587;BME280;5341;47.606;7.576;2023-04-06T11:23:23;98984.59;;;17.65;28.59
10587;BME280;5341;47.606;7.576;2023-04-06T11:25:52;98989.56;;;17.68;28.89
10587;BME280;5341;47.606;7.576;2023-04-06T11:28:21;98971.06;;;17.65;29.10
10587;BME280;5341;47.606;7.576;2023-04-06T11:30:49;98981.88;;;17.65;29.85
10587;BME280;5341;47.606;7.576;2023-04-06T11:33:22;98981.50;;;17.61;29.68
10587;BME280;5341;47.606;7.576;2023-04-06T11:35:50;98984.13;;;17.68;29.36
10587;BME280;5341;47.606;7.576;2023-04-06T11:38:18;98974.59;;;17.72;28.15
10587;BME280;5341;47.606;7.576;2023-04-06T11:40:47;98976.97;;;17.80;27.58
10587;BME280;5341;47.606;7.576;2023-04-06T11:43:27;98969.69;;;17.80;27.44
10587;BME280;5341;47.606;7.576;2023-04-06T11:46:00;98974.50;;;17.78;28.27
10587;BME280;5341;47.606;7.576;2023-04-06T11:48:28;98973.91;;;17.76;28.21
10587;BME280;5341;47.606;7.576;2023-04-06T11:50:56;98970.38;;;17.76;28.35
10587;BME280;5341;47.606;7.576;2023-04-06T11:53:27;98965.31;;;17.79;28.14
10587;BME280;5341;47.606;7.576;2023-04-06T11:55:55;98969.03;;;17.85;28.59
10587;BME280;5341;47.606;7.576;2023-04-06T11:58:22;98958.59;;;17.89;27.92
10587;BME280;5341;47.606;7.576;2023-04-06T12:00:51;98963.34;;;17.93;27.65
10587;BME280;5341;47.606;7.576;2023-04-06T12:03:19;98960.84;;;17.92;27.28
10587;BME280;5341;47.606;7.576;2023-04-06T12:05:47;98963.34;;;17.93;27.43
10587;BME280;5341;47.606;7.576;2023-04-06T12:08:15;98968.13;;;17.91;28.12
10587;BME280;5341;47.606;7.576;2023-04-06T12:10:43;98967.25;;;17.97;28.06
10587;BME280;5341;47.606;7.576;2023-04-06T12:13:10;98967.38;;;18.02;27.80
10587;BME280;5341;47.606;7.576;2023-04-06T12:15:38;98970.91;;;18.03;27.91
10587;BME280;5341;47.606;7.576;2023-04-06T12:18:07;98962.19;;;18.01;28.34
10587;BME280;5341;47.606;7.576;2023-04-06T12:20:35;98958.19;;;18.03;27.89
10587;BME280;5341;47.606;7.576;2023-04-06T12:23:02;98959.44;;;18.07;26.95
10587;BME280;5341;47.606;7.576;2023-04-06T12:25:30;98961.31;;;18.07;26.95
10587;BME280;5341;47.606;7.576;2023-04-06T12:27:57;98953.41;;;18.05;26.02
10587;BME280;5341;47.606;7.576;2023-04-06T12:30:25;98954.84;;;18.08;27.20
10587;BME280;5341;47.606;7.576;2023-04-06T12:32:53;98946.84;;;18.13;26.63
10587;BME280;5341;47.606;7.576;2023-04-06T12:35:22;98942.81;;;18.22;26.46
10587;BME280;5341;47.606;7.576;2023-04-06T12:37:49;98945.50;;;18.22;26.86
10587;BME280;5341;47.606;7.576;2023-04-06T12:40:17;98942.56;;;18.24;27.12
10587;BME280;5341;47.606;7.576;2023-04-06T12:42:44;98948.13;;;18.29;26.85
10587;BME280;5341;47.606;7.576;2023-04-06T12:45:12;98947.91;;;18.30;27.55
10587;BME280;5341;47.606;7.576;2023-04-06T12:47:40;98948.94;;;18.48;26.39
10587;BME280;5341;47.606;7.576;2023-04-06T12:50:08;98947.31;;;18.58;26.92
10587;BME280;5341;47.606;7.576;2023-04-06T12:52:37;98954.72;;;18.69;26.60
10587;BME280;5341;47.606;7.576;2023-04-06T12:55:06;98946.13;;;18.72;26.70
10587;BME280;5341;47.606;7.576;2023-04-06T12:57:34;98947.28;;;18.77;26.54
10587;BME280;5341;47.606;7.576;2023-04-06T13:00:03;98949.56;;;18.80;26.69
10587;BME280;5341;47.606;7.576;2023-04-06T13:02:31;98931.78;;;18.84;26.97
10587;BME280;5341;47.606;7.576;2023-04-06T13:04:59;98935.09;;;18.86;27.68
10587;BME280;5341;47.606;7.576;2023-04-06T13:07:27;98937.47;;;18.94;27.60
10587;BME280;5341;47.606;7.576;2023-04-06T13:09:56;98935.03;;;19.04;27.23
10587;BME280;5341;47.606;7.576;2023-04-06T13:12:24;98936.28;;;19.01;28.02
10587;BME280;5341;47.606;7.576;2023-04-06T13:14:51;98937.34;;;19.00;28.22
10587;BME280;5341;47.606;7.576;2023-04-06T13:17:19;98926.75;;;18.99;27.94
10587;BME280;5341;47.606;7.576;2023-04-06T13:19:47;98926.88;;;19.04;28.04
10587;BME280;5341;47.606;7.576;2023-04-06T13:22:14;98926.38;;;18.95;27.68
10587;BME280;5341;47.606;7.576;2023-04-06T13:24:42;98918.59;;;18.87;28.21
10587;BME280;5341;47.606;7.576;2023-04-06T13:27:12;98914.00;;;18.88;28.13
10587;BME280;5341;47.606;7.576;2023-04-06T13:29:39;98918.00;;;18.85;28.17
10587;BME280;5341;47.606;7.576;2023-04-06T13:32:07;98916.00;;;18.81;28.09